createdAt,value
2018-03-31T00:00:08.254Z,68.55
2018-03-31T00:02:35.345Z,67.70
2018-03-31T00:05:02.390Z,68.11
2018-03-31T00:07:29.431Z,67.42
2018-03-31T00:09:56.486Z,67.39
2018-03-31T00:12:23.518Z,67.19
2018-03-31T00:14:50.489Z,67.04
2018-03-31T00:17:17.814Z,66.38
2018-03-31T00:19:44.798Z,66.71
2018-03-31T00:22:11.770Z,66.82
2018-03-31T00:24:38.771Z,66.81
2018-03-31T00:27:05.742Z,66.71
2018-03-31T00:29:32.773Z,67.25
2018-03-31T00:31:59.742Z,67.23
2018-03-31T00:34:26.759Z,65.80
2018-03-31T00:36:53.770Z,65.51
2018-03-31T00:39:20.746Z,65.96
2018-03-31T00:41:48.077Z,66.47
2018-03-31T00:44:15.056Z,66.22
2018-03-31T00:46:42.028Z,66.83
2018-03-31T00:49:09.029Z,66.08
2018-03-31T00:51:35.998Z,66.29
2018-03-31T00:54:03.409Z,66.45
2018-03-31T00:56:30.381Z,65.39
2018-03-31T00:58:57.349Z,66.23
2018-03-31T01:01:24.362Z,66.53
2018-03-31T01:03:51.352Z,66.02
2018-03-31T01:06:18.499Z,66.64
2018-03-31T01:08:45.473Z,66.70
2018-03-31T01:11:12.446Z,67.10
2018-03-31T01:13:39.452Z,67.07
2018-03-31T01:16:06.417Z,66.85
2018-03-31T01:18:33.683Z,66.65
2018-03-31T01:21:00.974Z,66.53
2018-03-31T01:23:27.943Z,67.63
2018-03-31T01:25:54.946Z,67.11
2018-03-31T01:28:21.922Z,67.07
2018-03-31T01:30:49.333Z,66.80
2018-03-31T01:33:16.313Z,67.52
2018-03-31T01:35:43.294Z,66.08
2018-03-31T01:38:10.281Z,66.87
2018-03-31T01:40:37.254Z,66.05
2018-03-31T01:43:04.667Z,66.22
2018-03-31T01:45:31.688Z,66.64
2018-03-31T01:47:58.657Z,66.64
2018-03-31T01:50:25.654Z,67.29
2018-03-31T01:52:52.622Z,67.28
2018-03-31T01:55:19.826Z,67.23
2018-03-31T01:57:46.792Z,67.86
2018-03-31T02:00:13.769Z,68.59
2018-03-31T02:02:40.775Z,68.25
2018-03-31T02:05:07.749Z,67.91
2018-03-31T02:07:34.758Z,67.02
2018-03-31T02:10:01.742Z,65.92
2018-03-31T02:12:28.713Z,66.15
2018-03-31T02:14:55.718Z,67.08
2018-03-31T02:17:22.703Z,67.61
2018-03-31T02:19:49.722Z,67.29
2018-03-31T02:22:16.768Z,68.18
2018-03-31T02:24:43.739Z,67.66
2018-03-31T02:27:10.733Z,66.73
2018-03-31T02:29:37.710Z,67.32
2018-03-31T02:32:05.639Z,66.76
2018-03-31T02:34:32.610Z,67.22
2018-03-31T02:36:59.582Z,67.25
2018-03-31T02:39:26.584Z,66.02
2018-03-31T02:41:53.780Z,66.70
2018-03-31T02:44:20.955Z,66.51
2018-03-31T02:46:47.935Z,66.23
2018-03-31T02:49:14.911Z,66.24
2018-03-31T02:51:41.919Z,66.32
2018-03-31T02:54:08.928Z,67.18
2018-03-31T02:56:36.097Z,66.32
2018-03-31T02:59:03.079Z,66.49
2018-03-31T03:01:30.104Z,66.14
2018-03-31T03:03:57.179Z,66.69
2018-03-31T03:06:24.152Z,66.53
2018-03-31T03:08:51.384Z,66.16
2018-03-31T03:11:18.353Z,65.85
2018-03-31T03:13:45.338Z,66.19
2018-03-31T03:16:12.333Z,66.23
2018-03-31T03:18:39.313Z,66.05
2018-03-31T03:21:06.317Z,66.10
2018-03-31T03:23:33.283Z,65.57
2018-03-31T03:26:00.258Z,65.78
2018-03-31T03:28:27.258Z,65.75
2018-03-31T03:30:54.230Z,65.83
2018-03-31T03:33:21.267Z,65.74
2018-03-31T03:35:48.241Z,65.58
2018-03-31T03:38:15.217Z,65.44
2018-03-31T03:40:42.226Z,65.98
2018-03-31T03:43:09.207Z,66.04
2018-03-31T03:45:36.214Z,66.35
2018-03-31T03:48:03.198Z,66.34
2018-03-31T03:50:30.186Z,66.33
2018-03-31T03:52:57.186Z,66.24
2018-03-31T03:55:24.157Z,66.18
2018-03-31T03:57:51.386Z,66.48
2018-03-31T04:00:18.370Z,66.49
2018-03-31T04:02:45.358Z,66.11
2018-03-31T04:05:12.405Z,65.77
2018-03-31T04:07:39.362Z,65.69
2018-03-31T04:10:06.758Z,65.85
2018-03-31T04:12:34.414Z,65.66
2018-03-31T04:15:01.420Z,66.11
2018-03-31T04:17:30.564Z,65.63
2018-03-31T04:19:57.535Z,66.22
2018-03-31T04:22:24.681Z,67.02
2018-03-31T04:24:51.654Z,66.83
2018-03-31T04:27:18.626Z,66.55
2018-03-31T04:29:45.638Z,66.65
2018-03-31T04:32:12.620Z,66.46
2018-03-31T04:34:40.855Z,66.42
2018-03-31T04:37:07.919Z,66.44
2018-03-31T04:39:34.897Z,67.32
2018-03-31T04:42:01.929Z,67.07
2018-03-31T04:46:55.513Z,66.33
2018-03-31T04:49:22.488Z,66.35
2018-03-31T04:51:49.462Z,66.31
2018-03-31T04:54:16.449Z,66.23
2018-03-31T04:56:43.421Z,66.46
2018-03-31T04:59:10.602Z,66.50
2018-03-31T05:01:37.585Z,66.32
2018-03-31T05:04:04.549Z,66.18
2018-03-31T05:06:31.551Z,66.10
2018-03-31T05:08:58.526Z,66.00
2018-03-31T05:11:25.538Z,66.11
2018-03-31T05:13:52.542Z,66.16
2018-03-31T05:16:19.518Z,66.31
2018-03-31T05:18:46.523Z,66.21
2018-03-31T05:21:13.554Z,65.79
2018-03-31T05:23:43.932Z,65.65
2018-03-31T05:26:10.910Z,65.44
2018-03-31T05:28:37.886Z,65.33
2018-03-31T05:31:05.917Z,65.16
2018-03-31T05:33:32.886Z,65.17
2018-03-31T05:35:59.858Z,64.91
2018-03-31T05:38:26.886Z,64.67
2018-03-31T05:40:53.854Z,64.74
2018-03-31T05:43:20.827Z,64.53
2018-03-31T05:45:48.099Z,64.69
2018-03-31T05:48:15.066Z,64.69
2018-03-31T05:50:42.040Z,64.08
2018-03-31T05:53:09.051Z,64.20
2018-03-31T05:55:36.017Z,63.85
2018-03-31T05:58:03.446Z,63.86
2018-03-31T06:00:30.564Z,63.50
2018-03-31T06:02:57.530Z,63.45
2018-03-31T06:05:24.502Z,63.35
2018-03-31T06:07:51.710Z,64.71
2018-03-31T06:10:18.686Z,64.46
2018-03-31T06:12:45.661Z,65.41
2018-03-31T06:15:12.877Z,64.89
2018-03-31T06:17:39.849Z,64.56
2018-03-31T06:20:06.829Z,64.70
2018-03-31T06:22:33.994Z,64.00
2018-03-31T06:25:00.966Z,63.75
2018-03-31T06:27:27.942Z,63.93
2018-03-31T06:29:54.962Z,63.72
2018-03-31T06:32:22.837Z,63.48
2018-03-31T06:34:49.806Z,63.29
2018-03-31T06:37:16.824Z,62.80
2018-03-31T06:39:43.797Z,62.44
2018-03-31T06:42:10.769Z,61.87
2018-03-31T06:44:37.774Z,61.25
2018-03-31T06:47:05.516Z,60.65
2018-03-31T06:49:32.496Z,59.87
2018-03-31T06:51:59.513Z,60.44
2018-03-31T06:54:26.494Z,59.72
2018-03-31T06:56:53.477Z,59.94
2018-03-31T06:59:20.502Z,58.96
2018-03-31T07:01:47.473Z,58.29
2018-03-31T07:04:14.461Z,58.15
2018-03-31T07:06:41.459Z,58.33
2018-03-31T07:09:08.440Z,58.15
2018-03-31T07:11:35.422Z,59.22
2018-03-31T07:14:03.076Z,58.13
2018-03-31T07:16:30.054Z,56.91
2018-03-31T07:18:57.029Z,56.77
2018-03-31T07:21:24.038Z,56.65
2018-03-31T07:23:51.013Z,56.18
2018-03-31T07:26:17.986Z,56.08
2018-03-31T07:28:44.985Z,55.76
2018-03-31T07:31:11.962Z,55.80
2018-03-31T07:33:38.950Z,56.26
2018-03-31T07:36:05.965Z,55.72
2018-03-31T07:38:32.938Z,55.09
2018-03-31T07:41:00.762Z,53.72
2018-03-31T07:43:27.798Z,53.32
2018-03-31T07:45:54.774Z,52.72
2018-03-31T07:48:21.757Z,52.78
2018-03-31T07:50:48.763Z,52.30
2018-03-31T07:53:15.776Z,50.33
2018-03-31T07:55:42.767Z,49.78
2018-03-31T07:58:09.761Z,48.09
2018-03-31T08:00:36.756Z,48.27
2018-03-31T08:03:03.744Z,45.11
2018-03-31T08:05:30.774Z,43.47
2018-03-31T08:07:58.794Z,44.10
2018-03-31T08:10:26.251Z,42.54
2018-03-31T08:12:53.280Z,40.58
2018-03-31T08:15:20.522Z,38.66
2018-03-31T08:17:47.803Z,40.40
2018-03-31T08:20:14.925Z,40.28
2018-03-31T08:22:41.918Z,40.63
2018-03-31T08:25:08.922Z,40.94
2018-03-31T08:27:35.907Z,38.96
2018-03-31T08:30:02.890Z,37.45
2018-03-31T08:32:29.985Z,36.58
2018-03-31T08:34:57.003Z,35.95
2018-03-31T08:37:24.252Z,35.17
2018-03-31T08:39:51.266Z,34.80
2018-03-31T08:42:18.270Z,33.57
2018-03-31T08:44:45.270Z,32.17
2018-03-31T08:47:12.307Z,30.68
2018-03-31T08:49:39.454Z,28.33
2018-03-31T08:52:06.460Z,28.21
2018-03-31T08:54:33.485Z,28.37
2018-03-31T08:57:00.469Z,29.86
2018-03-31T08:59:27.554Z,32.08
2018-03-31T09:01:54.660Z,33.62
2018-03-31T09:04:21.708Z,35.14
2018-03-31T09:06:48.850Z,35.52
2018-03-31T09:09:15.960Z,33.72
2018-03-31T09:11:42.997Z,33.21
2018-03-31T09:14:10.063Z,34.29
2018-03-31T09:16:38.046Z,35.68
2018-03-31T09:19:05.699Z,36.06
2018-03-31T09:21:33.079Z,35.24
2018-03-31T09:24:00.134Z,34.80
2018-03-31T09:26:27.485Z,31.88
2018-03-31T09:28:54.834Z,31.18
2018-03-31T09:31:22.088Z,28.78
2018-03-31T09:33:49.339Z,27.30
2018-03-31T09:36:16.694Z,27.88
2018-03-31T09:38:44.110Z,27.07
2018-03-31T09:41:11.607Z,25.75
2018-03-31T09:43:38.820Z,25.82
2018-03-31T09:46:05.861Z,26.07
2018-03-31T09:48:33.161Z,26.08
2018-03-31T09:51:00.923Z,25.89
2018-03-31T09:53:27.945Z,22.31
2018-03-31T09:55:55.222Z,22.03
2018-03-31T09:58:22.579Z,20.94
2018-03-31T10:00:49.972Z,20.20
2018-03-31T10:03:17.803Z,20.34
2018-03-31T10:05:44.870Z,21.24
2018-03-31T10:08:11.996Z,20.22
2018-03-31T10:10:39.234Z,20.41
2018-03-31T10:13:06.513Z,19.50
2018-03-31T10:15:33.752Z,20.54
2018-03-31T10:18:00.794Z,21.36
2018-03-31T10:20:27.779Z,18.56
2018-03-31T10:22:54.810Z,18.22
2018-03-31T10:25:22.352Z,16.71
2018-03-31T10:27:49.501Z,17.22
2018-03-31T10:30:16.551Z,15.53
2018-03-31T10:32:44.516Z,15.09
2018-03-31T10:35:11.620Z,14.98
2018-03-31T10:37:38.602Z,16.91
2018-03-31T10:40:05.706Z,19.09
2018-03-31T10:42:32.826Z,21.39
2018-03-31T10:44:59.958Z,23.26
2018-03-31T10:47:26.989Z,20.44
2018-03-31T10:49:54.155Z,17.99
2018-03-31T10:52:21.304Z,16.70
2018-03-31T10:54:48.447Z,15.70
2018-03-31T10:57:15.670Z,14.20
2018-03-31T10:59:42.758Z,14.94
2018-03-31T11:02:09.864Z,14.99
2018-03-31T11:04:37.243Z,17.36
2018-03-31T11:07:04.226Z,20.37
2018-03-31T11:09:31.207Z,23.26
2018-03-31T11:11:58.395Z,25.50
2018-03-31T11:14:25.382Z,26.56
2018-03-31T11:16:52.712Z,26.38
2018-03-31T11:19:19.746Z,21.51
2018-03-31T11:21:46.742Z,17.92
2018-03-31T11:24:13.745Z,14.28
2018-03-31T11:26:40.725Z,12.04
2018-03-31T11:29:08.243Z,11.22
2018-03-31T11:31:35.349Z,11.64
2018-03-31T11:34:02.543Z,10.96
2018-03-31T11:36:29.563Z,11.93
2018-03-31T11:38:56.574Z,12.84
2018-03-31T11:41:23.602Z,16.44
2018-03-31T11:43:50.581Z,16.17
2018-03-31T11:46:17.569Z,13.95
2018-03-31T11:48:44.607Z,12.28
2018-03-31T11:51:11.606Z,12.07
2018-03-31T11:53:38.818Z,12.44
2018-03-31T11:56:06.158Z,12.49
2018-03-31T11:58:33.640Z,13.11
2018-03-31T12:01:00.642Z,14.30
2018-03-31T12:03:27.828Z,16.22
2018-03-31T12:05:54.953Z,14.14
2018-03-31T12:08:21.969Z,12.39
2018-03-31T12:10:49.070Z,12.87
2018-03-31T12:13:16.189Z,13.88
2018-03-31T12:15:43.182Z,13.30
2018-03-31T12:18:10.828Z,12.27
2018-03-31T12:20:37.829Z,10.58
2018-03-31T12:23:04.864Z,10.17
2018-03-31T12:25:32.071Z,7.96
2018-03-31T12:27:59.079Z,9.39
2018-03-31T12:30:26.351Z,11.21
2018-03-31T12:32:53.342Z,10.17
2018-03-31T12:35:20.332Z,9.93
2018-03-31T12:37:47.343Z,9.17
2018-03-31T12:40:14.341Z,9.66
2018-03-31T12:42:41.687Z,9.32
2018-03-31T12:45:08.669Z,9.64
2018-03-31T12:47:35.763Z,9.06
2018-03-31T12:50:02.850Z,8.50
2018-03-31T12:52:29.837Z,9.68
2018-03-31T12:54:57.026Z,10.28
2018-03-31T12:57:24.020Z,10.00
2018-03-31T12:59:51.126Z,9.35
2018-03-31T13:02:18.178Z,9.28
2018-03-31T13:04:45.158Z,8.96
2018-03-31T13:07:12.593Z,8.74
2018-03-31T13:09:39.655Z,10.48
2018-03-31T13:12:06.738Z,9.75
2018-03-31T13:14:33.822Z,9.87
2018-03-31T13:17:00.809Z,9.23
2018-03-31T13:19:27.996Z,9.21
2018-03-31T13:21:55.051Z,8.44
2018-03-31T13:24:23.023Z,9.25
2018-03-31T13:26:50.066Z,9.23
2018-03-31T13:29:17.054Z,9.72
2018-03-31T13:31:44.502Z,9.09
2018-03-31T13:34:11.486Z,8.72
2018-03-31T13:36:38.458Z,7.42
2018-03-31T13:39:05.449Z,8.56
2018-03-31T13:41:32.445Z,8.65
2018-03-31T13:43:59.737Z,8.32
2018-03-31T13:46:26.891Z,9.07
2018-03-31T13:48:54.210Z,9.59
2018-03-31T13:51:21.231Z,9.49
2018-03-31T13:53:48.220Z,9.32
2018-03-31T13:56:15.690Z,9.25
2018-03-31T13:58:42.818Z,9.39
2018-03-31T14:01:09.833Z,9.74
2018-03-31T14:03:36.836Z,9.60
2018-03-31T14:06:03.797Z,9.46
2018-03-31T14:08:30.808Z,9.18
2018-03-31T14:10:57.870Z,10.81
2018-03-31T14:13:24.914Z,10.13
2018-03-31T14:15:51.918Z,10.32
2018-03-31T14:18:18.890Z,9.86
2018-03-31T14:20:46.037Z,9.80
2018-03-31T14:23:13.018Z,11.70
2018-03-31T14:25:39.998Z,13.64
2018-03-31T14:28:07.101Z,13.89
2018-03-31T14:30:34.096Z,12.66
2018-03-31T14:33:01.282Z,13.94
2018-03-31T14:35:28.326Z,13.05
2018-03-31T14:37:55.299Z,14.17
2018-03-31T14:40:22.545Z,15.76
2018-03-31T14:42:49.603Z,17.38
2018-03-31T14:45:16.723Z,17.67
2018-03-31T14:47:44.196Z,15.67
2018-03-31T14:50:11.242Z,14.00
2018-03-31T14:52:38.269Z,13.96
2018-03-31T14:55:05.254Z,14.76
2018-03-31T14:57:32.669Z,14.23
2018-03-31T14:59:59.715Z,15.18
2018-03-31T15:02:26.790Z,18.13
2018-03-31T15:04:53.906Z,19.01
2018-03-31T15:07:20.880Z,19.24
2018-03-31T15:09:48.439Z,16.28
2018-03-31T15:12:15.443Z,16.62
2018-03-31T15:14:43.381Z,16.18
2018-03-31T15:17:11.397Z,15.06
2018-03-31T15:19:38.383Z,15.71
2018-03-31T15:22:05.438Z,15.31
2018-03-31T15:24:32.502Z,14.39
2018-03-31T15:26:59.819Z,14.94
2018-03-31T15:29:26.830Z,15.59
2018-03-31T15:31:53.826Z,15.25
2018-03-31T15:34:20.842Z,14.87
2018-03-31T15:36:48.213Z,15.50
2018-03-31T15:39:16.079Z,15.47
2018-03-31T15:41:43.150Z,16.43
2018-03-31T15:44:10.128Z,16.74
2018-03-31T15:46:37.666Z,18.41
2018-03-31T15:49:04.741Z,19.68
2018-03-31T15:51:31.722Z,21.41
2018-03-31T15:53:58.729Z,22.13
2018-03-31T15:56:25.922Z,23.84
2018-03-31T15:58:53.174Z,23.64
2018-03-31T16:01:24.382Z,24.55
2018-03-31T16:03:51.453Z,24.95
2018-03-31T16:06:18.924Z,25.44
2018-03-31T16:08:46.180Z,26.04
2018-03-31T16:11:13.507Z,25.01
2018-03-31T16:13:40.677Z,25.91
2018-03-31T16:16:07.932Z,25.98
2018-03-31T16:18:35.288Z,26.32
2018-03-31T16:21:02.594Z,26.23
2018-03-31T16:23:29.896Z,26.10
2018-03-31T16:25:57.044Z,26.83
2018-03-31T16:28:24.193Z,26.89
2018-03-31T16:30:51.445Z,27.66
2018-03-31T16:33:18.580Z,27.53
2018-03-31T16:35:45.846Z,27.52
2018-03-31T16:38:12.982Z,28.29
2018-03-31T16:40:40.021Z,28.45
2018-03-31T16:43:07.193Z,28.01
2018-03-31T16:45:34.418Z,28.20
2018-03-31T16:48:01.794Z,28.39
2018-03-31T16:50:29.465Z,28.82
2018-03-31T16:52:56.691Z,28.02
2018-03-31T16:55:24.944Z,28.52
2018-03-31T16:57:52.572Z,29.68
2018-03-31T17:00:19.818Z,29.85
2018-03-31T17:02:47.051Z,29.99
2018-03-31T17:05:14.305Z,29.87
2018-03-31T17:07:41.539Z,30.68
2018-03-31T17:10:08.810Z,30.78
2018-03-31T17:12:36.178Z,30.50
2018-03-31T17:15:04.234Z,31.63
2018-03-31T17:17:31.591Z,31.72
2018-03-31T17:19:58.843Z,31.80
2018-03-31T17:22:25.992Z,32.45
2018-03-31T17:24:53.247Z,32.58
2018-03-31T17:27:20.500Z,32.34
2018-03-31T17:29:47.952Z,32.55
2018-03-31T17:32:15.308Z,32.18
2018-03-31T17:34:42.529Z,32.51
2018-03-31T17:37:09.914Z,32.64
2018-03-31T17:39:37.192Z,32.59
2018-03-31T17:42:04.519Z,32.92
2018-03-31T17:44:31.833Z,33.58
2018-03-31T17:46:59.046Z,33.53
2018-03-31T17:49:26.431Z,33.66
2018-03-31T17:51:53.732Z,33.99
2018-03-31T17:54:20.987Z,34.15
2018-03-31T17:56:48.547Z,34.66
2018-03-31T17:59:15.808Z,35.24
2018-03-31T18:01:43.216Z,35.24
2018-03-31T18:04:10.406Z,35.28
2018-03-31T18:06:37.758Z,35.22
2018-03-31T18:09:04.848Z,35.92
2018-03-31T18:11:32.159Z,36.39
2018-03-31T18:13:59.515Z,36.48
2018-03-31T18:16:26.628Z,36.30
2018-03-31T18:18:53.635Z,36.76
2018-03-31T18:21:20.778Z,36.54
2018-03-31T18:23:48.251Z,36.62
2018-03-31T18:26:15.674Z,36.44
2018-03-31T18:28:42.679Z,36.40
2018-03-31T18:31:09.663Z,37.08
2018-03-31T18:33:36.702Z,38.29
2018-03-31T18:36:03.866Z,37.62
2018-03-31T18:38:31.418Z,37.54
2018-03-31T18:40:58.513Z,38.37
2018-03-31T18:43:25.547Z,38.73
2018-03-31T18:45:53.178Z,39.34
2018-03-31T18:48:20.532Z,39.90
2018-03-31T18:50:48.060Z,41.38
2018-03-31T18:53:15.298Z,41.29
2018-03-31T18:55:43.109Z,42.09
2018-03-31T18:58:10.469Z,42.18
2018-03-31T19:00:37.815Z,42.02
2018-03-31T19:03:05.171Z,41.86
2018-03-31T19:05:32.527Z,42.17
2018-03-31T19:07:59.674Z,43.03
2018-03-31T19:10:27.030Z,43.41
2018-03-31T19:12:54.282Z,43.84
2018-03-31T19:15:22.049Z,43.63
2018-03-31T19:17:49.299Z,44.39
2018-03-31T19:20:17.572Z,44.46
2018-03-31T19:22:44.927Z,45.14
2018-03-31T19:25:17.775Z,45.33
2018-03-31T19:27:45.371Z,45.36
2018-03-31T19:30:13.399Z,45.40
2018-03-31T19:32:40.695Z,45.76
2018-03-31T19:35:08.049Z,45.54
2018-03-31T19:37:35.300Z,45.85
2018-03-31T19:40:02.965Z,46.27
2018-03-31T19:42:30.216Z,45.83
2018-03-31T19:44:57.571Z,45.87
2018-03-31T19:47:25.592Z,45.93
2018-03-31T19:49:52.894Z,46.67
2018-03-31T19:52:20.247Z,46.34
2018-03-31T19:54:48.888Z,47.19
2018-03-31T19:57:16.184Z,46.90
2018-03-31T19:59:43.645Z,47.13
2018-03-31T20:02:10.897Z,46.64
2018-03-31T20:04:38.145Z,46.56
2018-03-31T20:07:05.809Z,46.63
2018-03-31T20:09:33.165Z,46.72
2018-03-31T20:12:00.418Z,46.87
2018-03-31T20:14:27.626Z,46.85
2018-03-31T20:16:55.119Z,47.08
2018-03-31T20:19:22.335Z,47.73
2018-03-31T20:21:49.498Z,47.87
2018-03-31T20:24:16.719Z,48.23
2018-03-31T20:26:43.927Z,47.54
2018-03-31T20:29:11.350Z,48.47
2018-03-31T20:31:39.051Z,48.55
2018-03-31T20:34:06.810Z,48.95
2018-03-31T20:36:34.578Z,48.43
2018-03-31T20:39:01.725Z,48.08
2018-03-31T20:41:29.235Z,48.59
2018-03-31T20:43:56.537Z,48.89
2018-03-31T20:46:23.769Z,48.50
2018-03-31T20:48:51.152Z,48.11
2018-03-31T20:51:19.848Z,48.63
2018-03-31T20:53:47.444Z,48.76
2018-03-31T20:56:14.742Z,48.84
2018-03-31T20:58:42.097Z,48.11
2018-03-31T21:01:10.298Z,48.21
2018-03-31T21:03:37.987Z,48.29
2018-03-31T21:06:05.387Z,48.50
2018-03-31T21:08:32.741Z,48.36
2018-03-31T21:11:00.000Z,48.39
2018-03-31T21:13:27.348Z,48.10
2018-03-31T21:15:54.600Z,48.06
2018-03-31T21:18:22.069Z,49.13
2018-03-31T21:20:49.415Z,48.78
2018-03-31T21:23:16.668Z,48.83
2018-03-31T21:25:45.044Z,48.71
2018-03-31T21:28:12.710Z,48.22
2018-03-31T21:30:40.221Z,48.53
2018-03-31T21:33:07.317Z,48.05
2018-03-31T21:35:34.543Z,48.76
2018-03-31T21:38:01.713Z,48.91
2018-03-31T21:40:28.838Z,48.66
2018-03-31T21:42:56.428Z,49.17
2018-03-31T21:45:23.576Z,49.04
2018-03-31T21:47:50.791Z,49.02
2018-03-31T21:50:18.032Z,49.22
2018-03-31T21:52:45.637Z,49.13
2018-03-31T21:55:12.984Z,48.94
2018-03-31T21:57:40.141Z,48.67
2018-03-31T22:00:07.292Z,48.59
2018-03-31T22:02:34.643Z,48.48
2018-03-31T22:05:01.632Z,48.27
2018-03-31T22:07:28.926Z,48.26
2018-03-31T22:09:55.913Z,48.08
2018-03-31T22:12:22.884Z,47.79
2018-03-31T22:14:55.511Z,47.32
2018-03-31T22:17:22.662Z,47.52
2018-03-31T22:19:49.812Z,47.21
2018-03-31T22:22:16.949Z,47.01
2018-03-31T22:24:44.211Z,46.71
2018-03-31T22:27:11.198Z,46.60
2018-03-31T22:29:38.308Z,47.04
2018-03-31T22:32:05.332Z,46.72
2018-03-31T22:34:32.328Z,46.88
2018-03-31T22:36:59.385Z,46.93
2018-03-31T22:39:26.413Z,46.72
2018-03-31T22:41:53.393Z,46.49
2018-03-31T22:44:21.104Z,46.34
2018-03-31T22:46:48.073Z,46.83
2018-03-31T22:49:15.582Z,46.41
2018-03-31T22:51:42.554Z,46.56
2018-03-31T22:54:09.530Z,46.28
2018-03-31T22:56:36.868Z,45.99
2018-03-31T22:59:04.142Z,46.39
2018-03-31T23:01:31.329Z,46.65
2018-03-31T23:03:58.405Z,46.35
2018-03-31T23:06:25.398Z,46.18
2018-03-31T23:08:52.415Z,46.15
2018-03-31T23:11:19.387Z,46.87
2018-03-31T23:13:46.565Z,47.10
2018-03-31T23:16:14.004Z,46.93
2018-03-31T23:18:41.014Z,46.92
2018-03-31T23:21:08.013Z,47.02
2018-03-31T23:23:35.009Z,47.26
2018-03-31T23:26:02.212Z,46.95
2018-03-31T23:28:29.186Z,47.59
2018-03-31T23:30:56.161Z,47.36
2018-03-31T23:33:23.158Z,47.36
2018-03-31T23:35:50.169Z,47.98
2018-03-31T23:38:17.344Z,48.08
2018-03-31T23:40:44.354Z,47.80
2018-03-31T23:43:11.377Z,47.75
2018-03-31T23:45:38.398Z,48.05
2018-03-31T23:48:05.379Z,48.25
2018-03-31T23:50:32.712Z,48.04
2018-03-31T23:52:59.693Z,48.12
2018-03-31T23:55:26.674Z,48.05
2018-03-31T23:57:53.686Z,48.08
